createdAt,value
2017-07-30T00:00:51.532Z,0
2017-07-30T00:02:02.340Z,0
2017-07-30T00:03:12.917Z,0
2017-07-30T00:04:23.547Z,0
2017-07-30T00:05:34.011Z,0
2017-07-30T00:06:44.734Z,0
2017-07-30T00:07:54.899Z,0
2017-07-30T00:09:05.618Z,0
2017-07-30T00:10:16.197Z,0
2017-07-30T00:11:26.799Z,0
2017-07-30T00:12:37.555Z,0
2017-07-30T00:13:48.038Z,0
2017-07-30T00:14:58.568Z,0
2017-07-30T00:16:09.148Z,0
2017-07-30T00:17:19.657Z,0
2017-07-30T00:18:30.712Z,0
2017-07-30T00:19:41.161Z,0
2017-07-30T00:20:51.627Z,0
2017-07-30T00:22:02.123Z,0
2017-07-30T00:23:12.612Z,0
2017-07-30T00:24:23.367Z,0
2017-07-30T00:25:33.980Z,0
2017-07-30T00:26:45.537Z,0
2017-07-30T00:27:56.048Z,0
2017-07-30T00:29:06.538Z,0
2017-07-30T00:30:17.385Z,0
2017-07-30T00:31:27.906Z,0
2017-07-30T00:32:38.395Z,0
2017-07-30T00:33:48.870Z,0
2017-07-30T00:34:59.318Z,0
2017-07-30T00:36:10.074Z,0
2017-07-30T00:37:20.563Z,0
2017-07-30T00:38:30.728Z,0
2017-07-30T00:39:41.462Z,0
2017-07-30T00:40:51.987Z,0
2017-07-30T00:42:02.723Z,0
2017-07-30T00:43:13.216Z,0
2017-07-30T00:44:23.480Z,0
2017-07-30T00:45:33.663Z,0
2017-07-30T00:46:44.225Z,0
2017-07-30T00:47:54.989Z,0
2017-07-30T00:49:05.117Z,0
2017-07-30T00:50:15.582Z,0
2017-07-30T00:51:26.122Z,0
2017-07-30T00:52:36.576Z,0
2017-07-30T00:53:46.956Z,0
2017-07-30T00:54:57.410Z,0
2017-07-30T00:56:07.551Z,0
2017-07-30T00:57:18.024Z,0
2017-07-30T00:58:28.473Z,0
2017-07-30T00:59:39.191Z,0
2017-07-30T01:00:49.717Z,0
2017-07-30T01:02:00.193Z,0
2017-07-30T01:03:10.792Z,0
2017-07-30T01:04:21.266Z,0
2017-07-30T01:05:32.017Z,0
2017-07-30T01:06:42.492Z,0
2017-07-30T01:07:53.127Z,0
2017-07-30T01:09:03.624Z,0
2017-07-30T01:10:14.122Z,0
2017-07-30T01:11:25.001Z,0
2017-07-30T01:12:35.450Z,0
2017-07-30T01:13:45.932Z,0
2017-07-30T01:14:56.420Z,0
2017-07-30T01:16:07.093Z,0
2017-07-30T01:17:17.960Z,0
2017-07-30T01:18:29.020Z,0
2017-07-30T01:19:39.543Z,0
2017-07-30T01:20:50.008Z,0
2017-07-30T01:22:00.662Z,0
2017-07-30T01:23:11.407Z,0
2017-07-30T01:24:21.894Z,0
2017-07-30T01:25:32.374Z,0
2017-07-30T01:26:42.845Z,0
2017-07-30T01:27:53.309Z,0
2017-07-30T01:29:04.035Z,0
2017-07-30T01:30:14.636Z,0
2017-07-30T01:31:25.117Z,0
2017-07-30T01:32:35.682Z,0
2017-07-30T01:33:46.175Z,0
2017-07-30T01:34:56.883Z,0
2017-07-30T01:36:07.448Z,0
2017-07-30T01:37:17.935Z,0
2017-07-30T01:38:28.392Z,0
2017-07-30T01:39:38.871Z,0
2017-07-30T01:40:49.022Z,0
2017-07-30T01:41:59.531Z,0
2017-07-30T01:43:10.076Z,0
2017-07-30T01:44:20.531Z,0
2017-07-30T01:45:31.018Z,0
2017-07-30T01:46:41.750Z,0
2017-07-30T01:47:52.457Z,0
2017-07-30T01:49:03.193Z,0
2017-07-30T01:50:13.697Z,0
2017-07-30T01:51:24.158Z,0
2017-07-30T01:52:34.860Z,0
2017-07-30T01:53:45.326Z,0
2017-07-30T01:54:55.784Z,0
2017-07-30T01:56:06.413Z,0
2017-07-30T01:57:16.899Z,0
2017-07-30T01:58:27.787Z,0
2017-07-30T01:59:38.230Z,0
2017-07-30T02:00:48.690Z,0
2017-07-30T02:01:59.155Z,0
2017-07-30T02:03:09.666Z,0
2017-07-30T02:04:20.408Z,0
2017-07-30T02:05:30.956Z,0
2017-07-30T02:06:41.418Z,0
2017-07-30T02:07:51.935Z,0
2017-07-30T02:09:02.394Z,0
2017-07-30T02:10:13.126Z,0
2017-07-30T02:11:23.786Z,0
2017-07-30T02:12:34.255Z,0
2017-07-30T02:13:44.732Z,0
2017-07-30T02:14:55.242Z,0
2017-07-30T02:16:05.956Z,0
2017-07-30T02:17:16.408Z,0
2017-07-30T02:18:26.864Z,0
2017-07-30T02:19:37.308Z,0
2017-07-30T02:20:48.116Z,0
2017-07-30T02:21:58.843Z,0
2017-07-30T02:23:09.296Z,0
2017-07-30T02:24:19.762Z,0
2017-07-30T02:25:30.262Z,0
2017-07-30T02:26:40.721Z,0
2017-07-30T02:27:51.468Z,0
2017-07-30T02:29:01.949Z,0
2017-07-30T02:30:12.452Z,0
2017-07-30T02:31:22.921Z,0
2017-07-30T02:32:33.392Z,0
2017-07-30T02:33:43.890Z,0
2017-07-30T02:34:54.402Z,0
2017-07-30T02:36:04.566Z,0
2017-07-30T02:37:15.024Z,0
2017-07-30T02:38:25.581Z,0
2017-07-30T02:39:35.992Z,0
2017-07-30T02:40:46.548Z,0
2017-07-30T02:41:57.002Z,0
2017-07-30T02:43:07.395Z,0
2017-07-30T02:44:17.863Z,0
2017-07-30T02:45:28.566Z,0
2017-07-30T02:46:39.033Z,0
2017-07-30T02:47:49.078Z,0
2017-07-30T02:48:59.717Z,0
2017-07-30T02:50:10.206Z,0
2017-07-30T02:51:20.947Z,0
2017-07-30T02:52:31.439Z,0
2017-07-30T02:53:41.925Z,0
2017-07-30T02:54:52.415Z,0
2017-07-30T02:56:02.929Z,0
2017-07-30T02:57:13.640Z,0
2017-07-30T02:58:25.117Z,0
2017-07-30T02:59:35.576Z,0
2017-07-30T03:00:46.083Z,0
2017-07-30T03:01:56.529Z,0
2017-07-30T03:03:06.978Z,0
2017-07-30T03:04:17.465Z,0
2017-07-30T03:05:28.006Z,0
2017-07-30T03:06:38.755Z,0
2017-07-30T03:07:49.203Z,0
2017-07-30T03:08:59.935Z,0
2017-07-30T03:10:10.074Z,0
2017-07-30T03:11:20.571Z,0
2017-07-30T03:12:31.022Z,0
2017-07-30T03:13:41.183Z,0
2017-07-30T03:14:51.913Z,0
2017-07-30T03:16:02.462Z,0
2017-07-30T03:17:12.919Z,0
2017-07-30T03:18:23.381Z,0
2017-07-30T03:19:33.946Z,0
2017-07-30T03:20:44.750Z,0
2017-07-30T03:21:55.626Z,0
2017-07-30T03:23:06.330Z,0
2017-07-30T03:24:16.894Z,0
2017-07-30T03:25:27.688Z,0
2017-07-30T03:26:38.479Z,5
2017-07-30T03:27:48.971Z,5
2017-07-30T03:28:59.644Z,5
2017-07-30T03:30:10.411Z,5
2017-07-30T03:31:20.634Z,5
2017-07-30T03:32:31.582Z,5
2017-07-30T03:33:42.115Z,5
2017-07-30T03:34:52.577Z,5
2017-07-30T03:36:03.023Z,5
2017-07-30T03:37:13.267Z,5
2017-07-30T03:38:24.037Z,5
2017-07-30T03:39:34.501Z,5
2017-07-30T03:40:44.960Z,5
2017-07-30T03:41:55.441Z,10
2017-07-30T03:43:05.889Z,10
2017-07-30T03:44:16.599Z,10
2017-07-30T03:45:27.050Z,10
2017-07-30T03:46:37.522Z,10
2017-07-30T03:47:48.033Z,10
2017-07-30T03:48:58.489Z,15
2017-07-30T03:50:09.255Z,15
2017-07-30T03:51:19.709Z,15
2017-07-30T03:52:30.163Z,15
2017-07-30T03:53:40.505Z,15
2017-07-30T03:54:50.750Z,15
2017-07-30T03:56:01.434Z,20
2017-07-30T03:57:11.946Z,15
2017-07-30T03:58:22.415Z,15
2017-07-30T03:59:32.934Z,15
2017-07-30T04:00:43.436Z,15
2017-07-30T04:01:54.198Z,20
2017-07-30T04:03:04.713Z,20
2017-07-30T04:04:15.201Z,20
2017-07-30T04:05:25.933Z,20
2017-07-30T04:06:36.391Z,20
2017-07-30T04:07:47.118Z,20
2017-07-30T04:08:57.595Z,20
2017-07-30T04:10:08.097Z,25
2017-07-30T04:11:18.587Z,25
2017-07-30T04:12:29.070Z,30
2017-07-30T04:13:39.468Z,35
2017-07-30T04:14:49.981Z,40
2017-07-30T04:16:00.486Z,35
2017-07-30T04:17:10.956Z,35
2017-07-30T04:18:21.417Z,40
2017-07-30T04:19:32.132Z,40
2017-07-30T04:20:42.723Z,40
2017-07-30T04:21:53.173Z,40
2017-07-30T04:23:03.707Z,40
2017-07-30T04:24:14.186Z,35
2017-07-30T04:25:24.901Z,30
2017-07-30T04:26:35.420Z,30
2017-07-30T04:27:45.916Z,30
2017-07-30T04:28:56.386Z,25
2017-07-30T04:30:06.938Z,20
2017-07-30T04:31:17.665Z,20
2017-07-30T04:32:28.109Z,20
2017-07-30T04:33:38.612Z,20
2017-07-30T04:34:49.066Z,20
2017-07-30T04:35:59.517Z,20
2017-07-30T04:37:10.254Z,25
2017-07-30T04:38:20.689Z,25
2017-07-30T04:39:31.217Z,25
2017-07-30T04:40:41.706Z,25
2017-07-30T04:41:52.197Z,30
2017-07-30T04:43:02.926Z,40
2017-07-30T04:44:13.586Z,45
2017-07-30T04:45:24.144Z,55
2017-07-30T04:46:34.588Z,55
2017-07-30T04:47:45.076Z,65
2017-07-30T04:48:56.044Z,75
2017-07-30T04:50:06.532Z,90
2017-07-30T04:51:17.029Z,100
2017-07-30T04:52:27.506Z,115
2017-07-30T04:53:37.954Z,115
2017-07-30T04:54:48.942Z,115
2017-07-30T04:55:59.394Z,125
2017-07-30T04:57:10.010Z,120
2017-07-30T04:58:20.520Z,115
2017-07-30T04:59:30.972Z,110
2017-07-30T05:00:41.662Z,95
2017-07-30T05:01:52.152Z,100
2017-07-30T05:03:02.620Z,105
2017-07-30T05:04:13.101Z,105
2017-07-30T05:05:23.557Z,110
2017-07-30T05:06:34.246Z,120
2017-07-30T05:07:44.790Z,110
2017-07-30T05:08:54.974Z,125
2017-07-30T05:10:05.431Z,155
2017-07-30T05:11:15.999Z,150
2017-07-30T05:12:26.695Z,145
2017-07-30T05:13:37.237Z,120
2017-07-30T05:14:47.669Z,120
2017-07-30T05:15:58.166Z,145
2017-07-30T05:17:08.830Z,185
2017-07-30T05:18:19.587Z,215
2017-07-30T05:19:30.145Z,220
2017-07-30T05:20:40.635Z,195
2017-07-30T05:21:51.106Z,190
2017-07-30T05:23:01.628Z,195
2017-07-30T05:24:12.425Z,225
2017-07-30T05:25:22.592Z,220
2017-07-30T05:26:33.064Z,230
2017-07-30T05:27:43.537Z,260
2017-07-30T05:28:53.849Z,280
2017-07-30T05:30:04.595Z,285
2017-07-30T05:31:15.067Z,280
2017-07-30T05:32:25.733Z,230
2017-07-30T05:33:36.224Z,200
2017-07-30T05:34:46.743Z,180
2017-07-30T05:35:57.141Z,160
2017-07-30T05:37:07.643Z,165
2017-07-30T05:38:18.233Z,150
2017-07-30T05:39:28.703Z,155
2017-07-30T05:40:39.239Z,155
2017-07-30T05:41:49.992Z,165
2017-07-30T05:43:00.508Z,170
2017-07-30T05:44:10.965Z,180
2017-07-30T05:45:21.457Z,190
2017-07-30T05:46:32.015Z,205
2017-07-30T05:47:42.729Z,175
2017-07-30T05:48:53.200Z,165
2017-07-30T05:50:04.538Z,195
2017-07-30T05:51:15.038Z,165
2017-07-30T05:52:25.513Z,170
2017-07-30T05:53:35.957Z,190
2017-07-30T05:54:46.422Z,190
2017-07-30T05:55:56.589Z,175
2017-07-30T05:57:07.333Z,180
2017-07-30T05:58:17.791Z,180
2017-07-30T05:59:28.643Z,205
2017-07-30T06:00:39.099Z,230
2017-07-30T06:01:49.637Z,240
2017-07-30T06:03:00.340Z,235
2017-07-30T06:04:10.798Z,260
2017-07-30T06:05:21.533Z,285
2017-07-30T06:06:32.012Z,290
2017-07-30T06:07:42.473Z,275
2017-07-30T06:08:53.053Z,265
2017-07-30T06:10:03.748Z,275
2017-07-30T06:11:14.478Z,285
2017-07-30T06:12:24.985Z,245
2017-07-30T06:13:35.507Z,215
2017-07-30T06:14:45.989Z,195
2017-07-30T06:15:56.546Z,200
2017-07-30T06:17:06.854Z,230
2017-07-30T06:18:17.579Z,255
2017-07-30T06:19:28.035Z,270
2017-07-30T06:20:38.576Z,300
2017-07-30T06:21:49.046Z,340
2017-07-30T06:22:59.793Z,360
2017-07-30T06:24:10.236Z,360
2017-07-30T06:25:20.795Z,365
2017-07-30T06:26:31.085Z,385
2017-07-30T06:27:41.533Z,395
2017-07-30T06:28:52.272Z,385
2017-07-30T06:30:02.745Z,370
2017-07-30T06:31:13.237Z,330
2017-07-30T06:32:23.687Z,315
2017-07-30T06:33:34.141Z,300
2017-07-30T06:34:44.898Z,285
2017-07-30T06:35:55.379Z,305
2017-07-30T06:37:05.849Z,295
2017-07-30T06:38:16.546Z,275
2017-07-30T06:39:27.031Z,290
2017-07-30T06:40:37.810Z,295
2017-07-30T06:41:48.038Z,320
2017-07-30T06:42:58.619Z,330
2017-07-30T06:44:09.717Z,385
2017-07-30T06:45:20.201Z,400
2017-07-30T06:46:30.930Z,410
2017-07-30T06:47:41.171Z,420
2017-07-30T06:48:51.713Z,445
2017-07-30T06:50:02.240Z,445
2017-07-30T06:51:12.733Z,450
2017-07-30T06:52:23.452Z,455
2017-07-30T06:53:33.932Z,465
2017-07-30T06:54:44.419Z,470
2017-07-30T06:55:54.963Z,475
2017-07-30T06:57:05.140Z,480
2017-07-30T06:58:15.975Z,475
2017-07-30T06:59:26.452Z,475
2017-07-30T07:00:36.919Z,490
2017-07-30T07:01:47.378Z,460
2017-07-30T07:02:57.884Z,475
2017-07-30T07:04:08.621Z,435
2017-07-30T07:05:19.146Z,395
2017-07-30T07:06:29.842Z,390
2017-07-30T07:07:40.358Z,405
2017-07-30T07:08:50.913Z,375
2017-07-30T07:10:01.506Z,365
2017-07-30T07:11:11.962Z,340
2017-07-30T07:12:22.502Z,330
2017-07-30T07:13:33.028Z,325
2017-07-30T07:14:43.547Z,330
2017-07-30T07:15:54.348Z,340
2017-07-30T07:17:04.899Z,295
2017-07-30T07:18:15.613Z,275
2017-07-30T07:19:26.112Z,255
2017-07-30T07:20:36.588Z,245
2017-07-30T07:21:47.284Z,270
2017-07-30T07:22:57.855Z,320
2017-07-30T07:24:08.302Z,340
2017-07-30T07:25:18.807Z,365
2017-07-30T07:26:29.522Z,360
2017-07-30T07:27:40.076Z,370
2017-07-30T07:28:50.568Z,400
2017-07-30T07:30:01.335Z,450
2017-07-30T07:31:11.810Z,465
2017-07-30T07:32:22.305Z,480
2017-07-30T07:33:33.265Z,515
2017-07-30T07:34:43.727Z,560
2017-07-30T07:35:54.221Z,585
2017-07-30T07:37:04.926Z,565
2017-07-30T07:38:15.658Z,505
2017-07-30T07:39:26.532Z,560
2017-07-30T07:40:37.020Z,570
2017-07-30T07:41:47.492Z,495
2017-07-30T07:42:58.023Z,425
2017-07-30T07:44:08.604Z,375
2017-07-30T07:45:19.439Z,360
2017-07-30T07:46:29.910Z,340
2017-07-30T07:47:40.396Z,360
2017-07-30T07:48:50.896Z,375
2017-07-30T07:50:01.357Z,385
2017-07-30T07:51:12.076Z,400
2017-07-30T07:52:22.593Z,425
2017-07-30T07:53:33.089Z,435
2017-07-30T07:54:43.686Z,470
2017-07-30T07:55:54.309Z,500
2017-07-30T07:57:05.064Z,530
2017-07-30T07:58:15.643Z,560
2017-07-30T07:59:26.128Z,570
2017-07-30T08:00:37.021Z,595
2017-07-30T08:01:47.484Z,670
2017-07-30T08:02:58.427Z,700
2017-07-30T08:04:08.883Z,725
2017-07-30T08:05:19.514Z,760
2017-07-30T08:06:30.053Z,725
2017-07-30T08:07:40.624Z,820
2017-07-30T08:08:51.341Z,860
2017-07-30T08:10:01.516Z,880
2017-07-30T08:11:12.223Z,860
2017-07-30T08:12:22.792Z,835
2017-07-30T08:13:33.280Z,865
2017-07-30T08:14:44.664Z,870
2017-07-30T08:15:55.445Z,810
2017-07-30T08:17:06.367Z,805
2017-07-30T08:18:16.892Z,770
2017-07-30T08:19:27.642Z,735
2017-07-30T08:20:38.613Z,715
2017-07-30T08:21:49.107Z,720
2017-07-30T08:22:59.697Z,700
2017-07-30T08:24:10.209Z,660
2017-07-30T08:25:20.926Z,640
2017-07-30T08:26:31.704Z,655
2017-07-30T08:27:42.208Z,640
2017-07-30T08:28:52.919Z,620
2017-07-30T08:30:03.474Z,605
2017-07-30T08:31:13.965Z,605
2017-07-30T08:32:24.767Z,590
2017-07-30T08:33:35.284Z,585
2017-07-30T08:34:45.808Z,575
2017-07-30T08:35:56.287Z,595
2017-07-30T08:37:06.838Z,630
2017-07-30T08:38:17.259Z,690
2017-07-30T08:39:27.755Z,730
2017-07-30T08:40:38.310Z,720
2017-07-30T08:41:48.494Z,685
2017-07-30T08:42:58.978Z,730
2017-07-30T08:44:09.750Z,745
2017-07-30T08:45:20.362Z,685
2017-07-30T08:46:31.895Z,650
2017-07-30T08:47:42.566Z,1295
2017-07-30T08:48:53.313Z,900
2017-07-30T08:50:04.043Z,2020
2017-07-30T08:51:14.575Z,2355
2017-07-30T08:52:25.112Z,2560
2017-07-30T08:53:35.824Z,2410
2017-07-30T08:54:46.483Z,1505
2017-07-30T08:55:57.236Z,1410
2017-07-30T08:57:07.840Z,2185
2017-07-30T08:58:18.448Z,2450
2017-07-30T08:59:28.982Z,2910
2017-07-30T09:00:39.665Z,2785
2017-07-30T09:01:50.485Z,2815
2017-07-30T09:03:01.174Z,3320
2017-07-30T09:04:11.701Z,3305
2017-07-30T09:05:22.170Z,2875
2017-07-30T09:06:32.665Z,2915
2017-07-30T09:07:43.414Z,2830
2017-07-30T09:08:53.930Z,2855
2017-07-30T09:10:04.479Z,2585
2017-07-30T09:11:15.001Z,3080
2017-07-30T09:12:25.301Z,2850
2017-07-30T09:13:36.067Z,2910
2017-07-30T09:14:46.641Z,3025
2017-07-30T09:15:57.156Z,3175
2017-07-30T09:17:07.647Z,3340
2017-07-30T09:18:18.157Z,3595
2017-07-30T09:19:28.904Z,3885
2017-07-30T09:20:39.436Z,3900
2017-07-30T09:21:50.030Z,3895
2017-07-30T09:23:00.208Z,3720
2017-07-30T09:24:10.767Z,3950
2017-07-30T09:25:21.514Z,3670
2017-07-30T09:26:32.132Z,3900
2017-07-30T09:27:42.619Z,3780
2017-07-30T09:28:53.366Z,2970
2017-07-30T09:30:03.885Z,3130
2017-07-30T09:31:14.897Z,3580
2017-07-30T09:32:25.405Z,3405
2017-07-30T09:33:35.914Z,3560
2017-07-30T09:34:46.446Z,2795
2017-07-30T09:35:56.989Z,2385
2017-07-30T09:37:07.757Z,2260
2017-07-30T09:38:18.431Z,3510
2017-07-30T09:39:29.166Z,3185
2017-07-30T09:40:39.675Z,3450
2017-07-30T09:41:50.425Z,3385
2017-07-30T09:43:01.388Z,3660
2017-07-30T09:44:11.972Z,2310
2017-07-30T09:45:22.514Z,3625
2017-07-30T09:46:33.053Z,2925
2017-07-30T09:47:43.551Z,1885
2017-07-30T09:48:54.534Z,2945
2017-07-30T09:50:05.043Z,2200
2017-07-30T09:51:15.574Z,1485
2017-07-30T09:52:26.075Z,1180
2017-07-30T09:53:36.588Z,3305
2017-07-30T09:54:47.345Z,3130
2017-07-30T09:55:57.851Z,1780
2017-07-30T09:57:08.372Z,3250
2017-07-30T09:58:18.874Z,3290
2017-07-30T09:59:29.386Z,1540
2017-07-30T10:00:39.894Z,1375
2017-07-30T10:01:50.101Z,2790
2017-07-30T10:03:00.652Z,1500
2017-07-30T10:04:12.465Z,1400
2017-07-30T10:05:23.094Z,1045
2017-07-30T10:06:33.832Z,1315
2017-07-30T10:07:44.347Z,1765
2017-07-30T10:08:54.848Z,1080
2017-07-30T10:10:05.486Z,1905
2017-07-30T10:11:16.299Z,1095
2017-07-30T10:12:27.081Z,1105
2017-07-30T10:13:37.657Z,1265
2017-07-30T10:14:48.209Z,1120
2017-07-30T10:15:58.734Z,1055
2017-07-30T10:17:09.452Z,2215
2017-07-30T10:18:20.200Z,1035
2017-07-30T10:19:30.686Z,1205
2017-07-30T10:20:40.899Z,1255
2017-07-30T10:21:52.335Z,2170
2017-07-30T10:23:02.848Z,2070
2017-07-30T10:24:13.346Z,2720
2017-07-30T10:25:23.848Z,4230
2017-07-30T10:26:34.486Z,4235
2017-07-30T10:27:45.135Z,2040
2017-07-30T10:28:55.611Z,2395
2017-07-30T10:30:06.653Z,2920
2017-07-30T10:31:17.206Z,4095
2017-07-30T10:32:27.734Z,1815
2017-07-30T10:33:38.239Z,1730
2017-07-30T10:34:48.797Z,3010
2017-07-30T10:35:59.626Z,3515
2017-07-30T10:37:10.218Z,1880
2017-07-30T10:38:20.478Z,3310
2017-07-30T10:39:31.021Z,2585
2017-07-30T10:40:41.730Z,1520
2017-07-30T10:41:52.472Z,3065
2017-07-30T10:43:02.981Z,1985
2017-07-30T10:44:13.514Z,4345
2017-07-30T10:45:24.064Z,2865
2017-07-30T10:46:34.577Z,2740
2017-07-30T10:47:45.310Z,1530
2017-07-30T10:48:55.802Z,3270
2017-07-30T10:50:06.395Z,2100
2017-07-30T10:51:16.962Z,1810
2017-07-30T10:52:27.931Z,2505
2017-07-30T10:53:38.741Z,3590
2017-07-30T10:54:49.241Z,1575
2017-07-30T10:55:59.929Z,2255
2017-07-30T10:57:10.659Z,1735
2017-07-30T10:58:21.422Z,1810
2017-07-30T10:59:32.377Z,3365
2017-07-30T11:00:42.950Z,2680
2017-07-30T11:01:53.551Z,3805
2017-07-30T11:03:04.153Z,3540
2017-07-30T11:04:14.721Z,2670
2017-07-30T11:05:25.542Z,4355
2017-07-30T11:06:36.047Z,3730
2017-07-30T11:07:46.247Z,2975
2017-07-30T11:08:56.774Z,3740
2017-07-30T11:10:07.274Z,4085
2017-07-30T11:11:18.315Z,3900
2017-07-30T11:12:29.106Z,4035
2017-07-30T11:13:39.594Z,3660
2017-07-30T11:14:50.095Z,2925
2017-07-30T11:16:00.579Z,2165
2017-07-30T11:17:11.313Z,975
2017-07-30T11:18:21.816Z,3455
2017-07-30T11:19:32.427Z,3620
2017-07-30T11:20:42.925Z,3525
2017-07-30T11:21:53.695Z,4365
2017-07-30T11:23:04.687Z,4290
2017-07-30T11:24:15.450Z,3915
2017-07-30T11:25:26.150Z,4360
2017-07-30T11:26:36.863Z,4610
2017-07-30T11:27:47.407Z,3865
2017-07-30T11:28:58.336Z,2930
2017-07-30T11:30:08.867Z,4160
2017-07-30T11:31:19.359Z,4445
2017-07-30T11:32:30.693Z,3910
2017-07-30T11:33:41.176Z,4010
2017-07-30T11:34:51.649Z,1155
2017-07-30T11:36:02.171Z,4320
2017-07-30T11:37:12.673Z,4540
2017-07-30T11:38:23.181Z,910
2017-07-30T11:39:33.421Z,4510
2017-07-30T11:40:44.221Z,565
2017-07-30T11:41:54.690Z,705
2017-07-30T11:43:05.200Z,4335
2017-07-30T11:44:15.717Z,4185
2017-07-30T11:45:26.272Z,4010
2017-07-30T11:46:37.020Z,2215
2017-07-30T11:47:47.556Z,775
2017-07-30T11:48:58.091Z,835
2017-07-30T11:50:08.660Z,770
2017-07-30T11:51:19.212Z,4250
2017-07-30T11:52:29.967Z,4685
2017-07-30T11:53:40.519Z,4985
2017-07-30T11:54:51.027Z,5015
2017-07-30T11:56:01.812Z,4875
2017-07-30T11:57:12.335Z,4475
2017-07-30T11:58:23.078Z,4030
2017-07-30T11:59:33.388Z,3710
2017-07-30T12:00:44.006Z,1105
2017-07-30T12:01:54.575Z,740
2017-07-30T12:03:05.379Z,3975
2017-07-30T12:04:15.946Z,4355
2017-07-30T12:05:26.699Z,4720
2017-07-30T12:06:37.399Z,4750
2017-07-30T12:07:47.952Z,4605
2017-07-30T12:08:58.225Z,4335
2017-07-30T12:10:09.328Z,4080
2017-07-30T12:11:19.880Z,3840
2017-07-30T12:12:30.425Z,4050
2017-07-30T12:13:41.007Z,4235
2017-07-30T12:14:51.226Z,4575
2017-07-30T12:16:02.077Z,4600
2017-07-30T12:17:12.622Z,3210
2017-07-30T12:18:23.211Z,4630
2017-07-30T12:19:33.799Z,3465
2017-07-30T12:20:44.585Z,3880
2017-07-30T12:21:55.370Z,3735
2017-07-30T12:23:06.071Z,3725
2017-07-30T12:24:16.656Z,2465
2017-07-30T12:25:27.361Z,2420
2017-07-30T12:26:37.941Z,2190
2017-07-30T12:27:48.842Z,2570
2017-07-30T12:28:59.546Z,1830
2017-07-30T12:30:09.818Z,2295
2017-07-30T12:31:19.983Z,3020
2017-07-30T12:32:30.549Z,3515
2017-07-30T12:33:41.414Z,2565
2017-07-30T12:34:52.150Z,3990
2017-07-30T12:36:02.743Z,3860
2017-07-30T12:37:13.341Z,3920
2017-07-30T12:38:23.679Z,1855
2017-07-30T12:39:34.551Z,2365
2017-07-30T12:40:44.748Z,2055
2017-07-30T12:41:55.348Z,1560
2017-07-30T12:43:05.885Z,1765
2017-07-30T12:44:16.413Z,2735
2017-07-30T12:45:27.222Z,3505
2017-07-30T12:46:37.542Z,3645
2017-07-30T12:47:49.077Z,3910
2017-07-30T12:48:59.616Z,4005
2017-07-30T12:50:10.174Z,3925
2017-07-30T12:51:21.026Z,3655
2017-07-30T12:52:31.708Z,3375
2017-07-30T12:53:41.918Z,3335
2017-07-30T12:54:52.408Z,3405
2017-07-30T12:56:02.983Z,3595
2017-07-30T12:57:13.764Z,2375
2017-07-30T12:58:24.361Z,935
2017-07-30T12:59:34.963Z,4175
2017-07-30T13:00:45.493Z,3910
2017-07-30T13:01:56.011Z,780
2017-07-30T13:03:06.405Z,1205
2017-07-30T13:04:17.088Z,3595
2017-07-30T13:05:27.690Z,3905
2017-07-30T13:06:38.215Z,4000
2017-07-30T13:07:48.723Z,4130
2017-07-30T13:08:59.496Z,3970
2017-07-30T13:10:09.718Z,875
2017-07-30T13:11:20.373Z,3875
2017-07-30T13:12:30.925Z,3825
2017-07-30T13:13:41.451Z,3705
2017-07-30T13:14:52.217Z,3425
2017-07-30T13:16:02.957Z,3595
2017-07-30T13:17:13.476Z,1140
2017-07-30T13:18:24.075Z,1165
2017-07-30T13:19:34.259Z,960
2017-07-30T13:20:45.090Z,3665
2017-07-30T13:21:55.282Z,4225
2017-07-30T13:23:05.993Z,3955
2017-07-30T13:24:16.585Z,3585
2017-07-30T13:25:27.188Z,3350
2017-07-30T13:26:37.985Z,3320
2017-07-30T13:27:48.491Z,3520
2017-07-30T13:28:59.011Z,3510
2017-07-30T13:30:09.675Z,3555
2017-07-30T13:31:21.299Z,3375
2017-07-30T13:32:32.041Z,3410
2017-07-30T13:33:42.201Z,3310
2017-07-30T13:34:52.542Z,3230
2017-07-30T13:36:03.330Z,3195
2017-07-30T13:37:13.540Z,3155
2017-07-30T13:38:24.276Z,3200
2017-07-30T13:39:34.788Z,3425
2017-07-30T13:40:45.566Z,3660
2017-07-30T13:41:56.328Z,3620
2017-07-30T13:43:06.879Z,3175
2017-07-30T13:44:17.648Z,2940
2017-07-30T13:45:27.745Z,2825
2017-07-30T13:46:38.273Z,2880
2017-07-30T13:47:49.194Z,3200
2017-07-30T13:48:59.701Z,3450
2017-07-30T13:50:10.467Z,2810
2017-07-30T13:51:20.994Z,3595
2017-07-30T13:52:31.512Z,3535
2017-07-30T13:53:42.031Z,3320
2017-07-30T13:54:52.517Z,2950
2017-07-30T13:56:03.407Z,2700
2017-07-30T13:57:13.980Z,2555
2017-07-30T13:58:24.738Z,2610
2017-07-30T13:59:34.888Z,2705
2017-07-30T14:00:45.517Z,2775
2017-07-30T14:01:56.686Z,3090
2017-07-30T14:03:07.249Z,3135
2017-07-30T14:04:17.327Z,2960
2017-07-30T14:05:27.963Z,2830
2017-07-30T14:06:38.626Z,2785
2017-07-30T14:07:49.393Z,2075
2017-07-30T14:08:59.980Z,2785
2017-07-30T14:10:10.471Z,2095
2017-07-30T14:11:20.990Z,3105
2017-07-30T14:12:31.539Z,775
2017-07-30T14:13:42.308Z,2370
2017-07-30T14:14:52.802Z,895
2017-07-30T14:16:03.312Z,2320
2017-07-30T14:17:13.841Z,2835
2017-07-30T14:18:24.348Z,2140
2017-07-30T14:19:35.128Z,3000
2017-07-30T14:20:45.686Z,2795
2017-07-30T14:21:56.201Z,2360
2017-07-30T14:23:06.709Z,2385
2017-07-30T14:24:17.267Z,2295
2017-07-30T14:25:27.776Z,2460
2017-07-30T14:26:38.333Z,2500
2017-07-30T14:27:48.869Z,2405
2017-07-30T14:28:59.435Z,2310
2017-07-30T14:30:10.930Z,2305
2017-07-30T14:31:21.743Z,2505
2017-07-30T14:32:32.336Z,2820
2017-07-30T14:33:43.005Z,2865
2017-07-30T14:34:53.594Z,2605
2017-07-30T14:36:04.098Z,2250
2017-07-30T14:37:14.549Z,2240
2017-07-30T14:38:25.097Z,2340
2017-07-30T14:39:35.668Z,1440
2017-07-30T14:40:46.242Z,2100
2017-07-30T14:41:56.827Z,1180
2017-07-30T14:43:07.740Z,885
2017-07-30T14:44:17.953Z,1610
2017-07-30T14:45:28.461Z,950
2017-07-30T14:46:38.990Z,670
2017-07-30T14:47:49.570Z,2340
2017-07-30T14:49:00.302Z,2450
2017-07-30T14:50:11.046Z,2440
2017-07-30T14:51:21.575Z,2715
2017-07-30T14:52:32.120Z,2300
2017-07-30T14:53:42.564Z,2120
2017-07-30T14:54:53.406Z,2170
2017-07-30T14:56:03.579Z,2225
2017-07-30T14:57:14.148Z,2325
2017-07-30T14:58:24.747Z,2360
2017-07-30T14:59:35.296Z,2330
2017-07-30T15:00:46.103Z,2250
2017-07-30T15:01:56.784Z,920
2017-07-30T15:03:07.368Z,670
2017-07-30T15:04:17.869Z,1505
2017-07-30T15:05:28.354Z,785
2017-07-30T15:06:39.164Z,1330
2017-07-30T15:07:49.697Z,765
2017-07-30T15:09:00.237Z,2530
2017-07-30T15:10:10.881Z,2765
2017-07-30T15:11:21.427Z,1600
2017-07-30T15:12:32.180Z,840
2017-07-30T15:13:42.815Z,410
2017-07-30T15:14:53.391Z,335
2017-07-30T15:16:03.607Z,350
2017-07-30T15:17:14.156Z,390
2017-07-30T15:18:24.597Z,1815
2017-07-30T15:19:35.110Z,1610
2017-07-30T15:20:45.943Z,480
2017-07-30T15:21:56.539Z,640
2017-07-30T15:23:07.429Z,760
2017-07-30T15:24:18.248Z,475
2017-07-30T15:25:28.772Z,440
2017-07-30T15:26:39.318Z,445
2017-07-30T15:27:49.958Z,700
2017-07-30T15:29:00.597Z,635
2017-07-30T15:30:11.391Z,630
2017-07-30T15:31:21.968Z,590
2017-07-30T15:32:32.174Z,560
2017-07-30T15:33:42.819Z,545
2017-07-30T15:34:53.434Z,575
2017-07-30T15:36:04.294Z,560
2017-07-30T15:37:14.881Z,505
2017-07-30T15:38:24.781Z,435
2017-07-30T15:39:35.319Z,435
2017-07-30T15:40:45.905Z,430
2017-07-30T15:41:56.773Z,420
2017-07-30T15:43:07.323Z,420
2017-07-30T15:44:18.127Z,415
2017-07-30T15:45:28.643Z,415
2017-07-30T15:46:39.175Z,420
2017-07-30T15:47:50.060Z,425
2017-07-30T15:49:00.642Z,440
2017-07-30T15:50:11.244Z,450
2017-07-30T15:51:21.816Z,465
2017-07-30T15:52:32.413Z,475
2017-07-30T15:53:43.211Z,475
2017-07-30T15:54:53.824Z,485
2017-07-30T15:56:04.403Z,505
2017-07-30T15:57:14.982Z,515
2017-07-30T15:58:25.612Z,510
2017-07-30T15:59:36.438Z,500
2017-07-30T16:00:47.015Z,480
2017-07-30T16:01:57.581Z,455
2017-07-30T16:03:08.217Z,370
2017-07-30T16:04:18.989Z,345
2017-07-30T16:05:29.361Z,380
2017-07-30T16:06:39.958Z,400
2017-07-30T16:07:50.199Z,375
2017-07-30T16:09:00.852Z,360
2017-07-30T16:10:11.428Z,320
2017-07-30T16:11:21.440Z,290
2017-07-30T16:12:31.672Z,260
2017-07-30T16:13:42.184Z,240
2017-07-30T16:14:52.751Z,210
2017-07-30T16:16:02.565Z,175
2017-07-30T16:17:13.369Z,145